createdAt,value
2022-10-29T00:01:08.171Z,63.00
2022-10-29T00:03:55.625Z,62.88
2022-10-29T00:06:43.243Z,62.97
2022-10-29T00:09:33.675Z,62.88
2022-10-29T00:12:24.235Z,62.94
2022-10-29T00:15:13.184Z,63.03
2022-10-29T00:18:00.838Z,63.03
2022-10-29T00:20:49.862Z,63.04
2022-10-29T00:23:37.691Z,62.90
2022-10-29T00:26:26.332Z,63.02
2022-10-29T00:29:15.440Z,63.21
2022-10-29T00:32:03.033Z,63.33
2022-10-29T00:34:50.732Z,63.07
2022-10-29T00:37:38.303Z,63.20
2022-10-29T00:40:26.101Z,63.16
2022-10-29T00:43:18.038Z,63.01
2022-10-29T00:46:13.150Z,63.10
2022-10-29T00:49:01.739Z,63.18
2022-10-29T00:51:49.860Z,63.42
2022-10-29T00:54:40.916Z,63.41
2022-10-29T00:57:36.227Z,63.40
2022-10-29T01:00:24.634Z,63.45
2022-10-29T01:03:13.868Z,63.67
2022-10-29T01:06:03.400Z,63.49
2022-10-29T01:08:50.683Z,63.63
2022-10-29T01:11:56.830Z,63.61
2022-10-29T01:15:01.148Z,63.42
2022-10-29T01:18:05.834Z,63.79
2022-10-29T01:21:38.936Z,63.65
2022-10-29T01:25:02.325Z,63.64
2022-10-29T01:28:15.498Z,63.59
2022-10-29T01:31:27.392Z,63.71
2022-10-29T01:34:25.253Z,63.73
2022-10-29T01:37:21.372Z,63.90
2022-10-29T01:40:18.939Z,63.63
2022-10-29T01:43:13.549Z,63.72
2022-10-29T01:46:09.772Z,63.86
2022-10-29T01:49:05.375Z,63.71
2022-10-29T01:51:55.878Z,63.81
2022-10-29T01:54:44.901Z,63.70
2022-10-29T01:57:35.176Z,63.65
2022-10-29T02:00:23.170Z,63.73
2022-10-29T02:03:34.247Z,63.81
2022-10-29T02:06:35.325Z,63.81
2022-10-29T02:09:29.925Z,63.84
2022-10-29T02:12:25.184Z,63.85
2022-10-29T02:15:18.979Z,64.08
2022-10-29T02:18:09.386Z,63.88
2022-10-29T02:20:56.777Z,63.93
2022-10-29T02:23:48.791Z,63.99
2022-10-29T02:26:36.296Z,63.92
2022-10-29T02:29:24.488Z,64.04
2022-10-29T02:32:12.096Z,63.98
2022-10-29T02:34:59.578Z,63.96
2022-10-29T02:37:49.545Z,63.94
2022-10-29T02:40:38.628Z,63.93
2022-10-29T02:43:26.163Z,63.93
2022-10-29T02:46:16.413Z,64.21
2022-10-29T02:49:04.001Z,64.25
2022-10-29T02:51:51.557Z,64.20
2022-10-29T02:54:40.377Z,64.20
2022-10-29T02:57:29.301Z,64.18
2022-10-29T03:00:17.994Z,64.13
2022-10-29T03:03:05.788Z,64.24
2022-10-29T03:05:53.644Z,64.13
2022-10-29T03:08:40.977Z,64.38
2022-10-29T03:11:28.341Z,64.36
2022-10-29T03:14:17.561Z,64.36
2022-10-29T03:17:08.310Z,64.29
2022-10-29T03:19:55.696Z,64.29
2022-10-29T03:22:43.056Z,64.01
2022-10-29T03:25:30.824Z,64.13
2022-10-29T03:28:18.405Z,64.08
2022-10-29T03:31:07.502Z,64.31
2022-10-29T03:33:55.110Z,64.27
2022-10-29T03:36:42.534Z,64.13
2022-10-29T03:39:33.067Z,63.97
2022-10-29T03:42:21.013Z,64.10
2022-10-29T03:45:10.169Z,64.23
2022-10-29T03:47:59.094Z,64.06
2022-10-29T03:50:46.755Z,64.15
2022-10-29T03:53:35.523Z,63.85
2022-10-29T03:56:23.302Z,63.64
2022-10-29T03:59:13.522Z,63.83
2022-10-29T04:02:00.979Z,63.74
2022-10-29T04:04:50.286Z,63.62
2022-10-29T04:07:37.947Z,63.69
2022-10-29T04:10:26.019Z,63.53
2022-10-29T04:13:13.716Z,63.80
2022-10-29T04:16:01.230Z,63.80
2022-10-29T04:18:49.002Z,63.63
2022-10-29T04:31:06.738Z,63.93
2022-10-29T04:33:54.950Z,63.94
2022-10-29T04:36:43.810Z,63.92
2022-10-29T04:39:31.437Z,63.91
2022-10-29T04:42:18.860Z,63.98
2022-10-29T04:45:08.109Z,63.83
2022-10-29T04:48:01.575Z,63.94
2022-10-29T04:50:50.067Z,63.79
2022-10-29T04:53:41.107Z,64.01
2022-10-29T04:56:28.738Z,64.10
2022-10-29T04:59:16.209Z,63.88
2022-10-29T05:02:03.661Z,64.05
2022-10-29T05:04:51.473Z,63.97
2022-10-29T05:07:38.923Z,63.97
2022-10-29T05:10:29.551Z,63.93
2022-10-29T05:13:17.188Z,64.06
2022-10-29T05:16:08.332Z,63.97
2022-10-29T05:18:55.736Z,63.71
2022-10-29T05:21:43.169Z,63.92
2022-10-29T05:24:30.567Z,63.92
2022-10-29T05:27:19.532Z,64.01
2022-10-29T05:30:09.203Z,64.01
2022-10-29T05:32:57.587Z,63.85
2022-10-29T05:35:45.924Z,64.01
2022-10-29T05:38:33.381Z,63.90
2022-10-29T05:41:20.841Z,63.83
2022-10-29T05:44:09.911Z,63.73
2022-10-29T05:47:03.613Z,63.99
2022-10-29T05:49:51.755Z,63.75
2022-10-29T05:52:39.513Z,63.84
2022-10-29T05:55:27.889Z,63.77
2022-10-29T05:58:16.540Z,63.65
2022-10-29T06:01:10.936Z,63.80
2022-10-29T06:04:01.414Z,63.46
2022-10-29T06:06:49.371Z,63.72
2022-10-29T06:09:37.008Z,63.77
2022-10-29T06:12:24.292Z,63.76
2022-10-29T06:15:12.615Z,63.62
2022-10-29T06:18:01.335Z,63.62
2022-10-29T06:20:48.989Z,63.78
2022-10-29T06:23:36.801Z,63.54
2022-10-29T06:26:24.270Z,63.68
2022-10-29T06:29:11.679Z,63.66
2022-10-29T06:31:59.042Z,63.54
2022-10-29T06:34:47.782Z,63.79
2022-10-29T06:37:39.583Z,63.96
2022-10-29T06:40:27.239Z,63.97
2022-10-29T06:43:14.947Z,63.53
2022-10-29T06:46:02.604Z,63.73
2022-10-29T06:48:50.275Z,63.53
2022-10-29T06:51:39.127Z,63.27
2022-10-29T06:54:26.827Z,63.19
2022-10-29T06:57:14.173Z,63.06
2022-10-29T07:00:05.664Z,63.17
2022-10-29T07:02:57.597Z,63.25
2022-10-29T07:05:46.383Z,62.96
2022-10-29T07:08:36.213Z,62.89
2022-10-29T07:11:23.699Z,62.63
2022-10-29T07:14:11.124Z,63.11
2022-10-29T07:16:58.524Z,63.39
2022-10-29T07:19:46.151Z,63.95
2022-10-29T07:22:34.926Z,64.27
2022-10-29T07:25:23.943Z,64.45
2022-10-29T07:28:16.364Z,64.52
2022-10-29T07:31:04.053Z,64.42
2022-10-29T07:33:51.671Z,64.68
2022-10-29T07:36:39.265Z,64.45
2022-10-29T07:39:26.604Z,64.38
2022-10-29T07:42:15.586Z,64.41
2022-10-29T07:45:07.447Z,64.36
2022-10-29T07:48:02.886Z,64.06
2022-10-29T07:50:54.105Z,64.21
2022-10-29T07:53:41.667Z,64.35
2022-10-29T07:56:29.353Z,64.34
2022-10-29T07:59:19.332Z,64.16
2022-10-29T08:02:08.484Z,64.25
2022-10-29T08:04:56.053Z,64.39
2022-10-29T08:07:43.675Z,64.12
2022-10-29T08:10:32.598Z,64.03
2022-10-29T08:13:20.025Z,63.90
2022-10-29T08:16:09.626Z,63.71
2022-10-29T08:18:57.375Z,63.72
2022-10-29T08:21:44.912Z,63.42
2022-10-29T08:24:32.341Z,63.30
2022-10-29T08:27:20.172Z,63.07
2022-10-29T08:30:10.169Z,63.02
2022-10-29T08:33:00.165Z,63.06
2022-10-29T08:35:48.114Z,62.70
2022-10-29T08:38:35.455Z,61.96
2022-10-29T08:41:42.707Z,61.86
2022-10-29T08:45:25.237Z,61.74
2022-10-29T08:48:36.105Z,61.64
2022-10-29T08:51:31.707Z,61.55
2022-10-29T08:54:36.044Z,61.45
2022-10-29T08:57:26.784Z,61.21
2022-10-29T09:00:19.389Z,60.70
2022-10-29T09:03:13.805Z,60.34
2022-10-29T09:06:12.942Z,59.76
2022-10-29T09:09:25.150Z,59.31
2022-10-29T09:12:56.368Z,58.85
2022-10-29T09:16:02.607Z,58.10
2022-10-29T09:19:14.612Z,57.82
2022-10-29T09:22:18.675Z,57.16
2022-10-29T09:25:18.612Z,57.17
2022-10-29T09:28:31.161Z,56.45
2022-10-29T09:31:31.014Z,55.92
2022-10-29T09:34:32.044Z,55.27
2022-10-29T09:37:29.027Z,54.87
2022-10-29T09:40:33.280Z,54.27
2022-10-29T09:43:36.052Z,54.00
2022-10-29T09:46:37.192Z,53.47
2022-10-29T09:49:49.040Z,53.40
2022-10-29T09:52:42.041Z,53.01
2022-10-29T09:55:37.617Z,52.57
2022-10-29T09:58:28.128Z,52.31
2022-10-29T10:01:16.131Z,52.25
2022-10-29T10:04:15.084Z,52.18
2022-10-29T10:07:10.194Z,51.85
2022-10-29T10:10:23.695Z,51.57
2022-10-29T10:13:18.929Z,52.00
2022-10-29T10:16:08.733Z,51.64
2022-10-29T10:18:56.634Z,51.60
2022-10-29T10:21:44.078Z,51.67
2022-10-29T10:24:34.421Z,51.28
2022-10-29T10:27:32.851Z,51.40
2022-10-29T10:30:23.690Z,51.43
2022-10-29T10:33:26.852Z,51.26
2022-10-29T10:36:14.523Z,51.31
2022-10-29T10:39:02.463Z,51.22
2022-10-29T10:41:52.020Z,50.62
2022-10-29T10:44:50.240Z,50.49
2022-10-29T10:47:42.617Z,50.56
2022-10-29T10:50:33.944Z,50.33
2022-10-29T10:53:23.806Z,50.01
2022-10-29T10:56:21.029Z,49.96
2022-10-29T10:59:21.626Z,50.01
2022-10-29T11:02:33.763Z,50.20
2022-10-29T11:05:34.371Z,49.77
2022-10-29T11:08:30.123Z,49.98
2022-10-29T11:11:24.292Z,50.22
2022-10-29T11:14:17.674Z,51.05
2022-10-29T11:17:09.784Z,51.12
2022-10-29T11:20:03.422Z,50.97
2022-10-29T11:23:02.480Z,51.13
2022-10-29T11:26:00.521Z,51.45
2022-10-29T11:28:56.521Z,51.79
2022-10-29T11:31:54.912Z,51.82
2022-10-29T11:35:04.432Z,52.01
2022-10-29T11:38:00.140Z,52.28
2022-10-29T11:40:56.151Z,52.50
2022-10-29T11:43:43.538Z,52.75
2022-10-29T11:46:53.544Z,52.83
2022-10-29T11:50:08.918Z,53.16
2022-10-29T11:53:08.664Z,52.90
2022-10-29T11:56:08.521Z,53.33
2022-10-29T11:59:12.447Z,53.28
2022-10-29T12:02:19.718Z,53.77
2022-10-29T12:05:22.899Z,54.02
2022-10-29T12:08:41.473Z,54.10
2022-10-29T12:11:43.315Z,54.24
2022-10-29T12:14:40.187Z,54.29
2022-10-29T12:17:47.220Z,54.22
2022-10-29T12:20:45.644Z,54.27
2022-10-29T12:23:46.671Z,54.77
2022-10-29T12:26:44.190Z,54.54
2022-10-29T12:29:47.955Z,54.84
2022-10-29T12:32:45.367Z,54.85
2022-10-29T12:35:56.784Z,54.82
2022-10-29T12:38:48.806Z,55.35
2022-10-29T12:41:42.680Z,55.16
2022-10-29T12:44:45.171Z,55.57
2022-10-29T12:47:40.724Z,55.80
2022-10-29T12:50:46.222Z,55.83
2022-10-29T12:53:45.330Z,55.94
2022-10-29T12:56:33.730Z,55.78
2022-10-29T12:59:36.307Z,55.90
2022-10-29T13:02:31.371Z,56.10
2022-10-29T13:05:43.281Z,56.56
2022-10-29T13:08:37.291Z,56.36
2022-10-29T13:11:45.471Z,56.37
2022-10-29T13:14:41.388Z,56.40
2022-10-29T13:17:41.115Z,56.22
2022-10-29T13:20:37.334Z,56.40
2022-10-29T13:23:37.903Z,56.58
2022-10-29T13:27:05.952Z,56.55
2022-10-29T13:30:19.209Z,56.95
2022-10-29T13:33:55.128Z,57.02
2022-10-29T13:36:42.399Z,56.86
2022-10-29T13:39:31.237Z,57.37
2022-10-29T13:42:19.900Z,57.37
2022-10-29T13:45:13.120Z,57.59
2022-10-29T13:48:06.199Z,57.39
2022-10-29T13:50:56.614Z,57.40
2022-10-29T13:53:53.276Z,57.32
2022-10-29T13:56:50.267Z,57.32
2022-10-29T13:59:44.802Z,57.14
2022-10-29T14:02:48.709Z,57.42
2022-10-29T14:05:41.393Z,57.32
2022-10-29T14:08:41.903Z,57.69
2022-10-29T14:11:36.715Z,57.62
2022-10-29T14:14:34.031Z,57.61
2022-10-29T14:17:21.718Z,57.48
2022-10-29T14:20:24.099Z,57.93
2022-10-29T14:23:13.689Z,58.00
2022-10-29T14:26:04.815Z,58.18
2022-10-29T14:28:52.709Z,58.04
2022-10-29T14:31:41.825Z,58.17
2022-10-29T14:34:32.301Z,58.23
2022-10-29T14:37:28.254Z,58.38
2022-10-29T14:40:22.621Z,58.33
2022-10-29T14:43:25.283Z,58.65
2022-10-29T14:46:27.753Z,58.64
2022-10-29T14:49:21.228Z,58.72
2022-10-29T14:52:32.923Z,58.64
2022-10-29T14:55:28.590Z,58.82
2022-10-29T15:01:20.540Z,59.14
2022-10-29T15:04:20.591Z,59.35
2022-10-29T15:07:30.189Z,59.13
2022-10-29T15:10:23.552Z,59.21
2022-10-29T15:13:24.041Z,59.54
2022-10-29T15:16:22.383Z,59.54
2022-10-29T15:19:18.313Z,59.88
2022-10-29T15:22:11.971Z,59.68
2022-10-29T15:25:00.119Z,59.88
2022-10-29T15:27:53.255Z,60.05
2022-10-29T15:30:41.374Z,60.02
2022-10-29T15:33:31.472Z,60.28
2022-10-29T15:36:19.192Z,60.20
2022-10-29T15:39:26.963Z,59.94
2022-10-29T15:42:23.487Z,60.19
2022-10-29T15:45:29.966Z,60.28
2022-10-29T15:48:37.183Z,60.45
2022-10-29T15:51:28.448Z,60.37
2022-10-29T15:54:17.776Z,60.54
2022-10-29T15:57:08.473Z,60.69
2022-10-29T15:59:57.426Z,60.80
2022-10-29T16:02:57.714Z,60.99
2022-10-29T16:05:51.852Z,61.06
2022-10-29T16:08:42.457Z,61.20
2022-10-29T16:11:31.593Z,61.14
2022-10-29T16:14:23.755Z,61.52
2022-10-29T16:17:15.674Z,61.38
2022-10-29T16:20:03.007Z,61.82
2022-10-29T16:22:51.135Z,61.67
2022-10-29T16:25:40.151Z,61.63
2022-10-29T16:28:29.119Z,62.22
2022-10-29T16:31:21.255Z,62.03
2022-10-29T16:34:15.152Z,62.26
2022-10-29T16:37:05.001Z,62.55
2022-10-29T16:39:52.500Z,62.57
2022-10-29T16:42:40.583Z,62.64
2022-10-29T16:45:31.420Z,62.77
2022-10-29T16:48:21.481Z,62.78
2022-10-29T16:51:09.530Z,63.02
2022-10-29T16:53:56.951Z,62.75
2022-10-29T16:56:44.786Z,62.99
2022-10-29T16:59:32.166Z,63.27
2022-10-29T17:02:24.779Z,63.01
2022-10-29T17:05:12.468Z,63.10
2022-10-29T17:08:01.564Z,63.10
2022-10-29T17:10:49.046Z,63.29
2022-10-29T17:13:37.114Z,63.31
2022-10-29T17:16:24.900Z,63.36
2022-10-29T17:19:14.207Z,63.44
2022-10-29T17:22:04.261Z,63.60
2022-10-29T17:24:51.512Z,63.54
2022-10-29T17:27:40.490Z,63.24
2022-10-29T17:30:31.051Z,63.31
2022-10-29T17:33:19.668Z,63.35
2022-10-29T17:36:13.004Z,63.42
2022-10-29T17:39:01.087Z,63.73
2022-10-29T17:41:51.053Z,63.31
2022-10-29T17:44:41.180Z,63.37
2022-10-29T17:47:28.561Z,63.47
2022-10-29T17:50:16.238Z,63.74
2022-10-29T17:53:07.438Z,63.53
2022-10-29T17:55:58.432Z,63.60
2022-10-29T17:58:46.010Z,63.70
2022-10-29T18:01:35.137Z,63.57
2022-10-29T18:04:22.502Z,63.47
2022-10-29T18:07:10.109Z,63.62
2022-10-29T18:09:59.050Z,63.47
2022-10-29T18:12:46.979Z,63.42
2022-10-29T18:15:34.393Z,63.56
2022-10-29T18:18:24.950Z,63.49
2022-10-29T18:21:17.086Z,63.32
2022-10-29T18:24:04.842Z,63.40
2022-10-29T18:26:53.647Z,63.22
2022-10-29T18:29:41.308Z,63.30
2022-10-29T18:32:28.782Z,63.36
2022-10-29T18:35:16.357Z,63.12
2022-10-29T18:38:04.054Z,63.22
2022-10-29T18:40:56.954Z,63.07
2022-10-29T18:43:46.059Z,62.97
2022-10-29T18:46:38.099Z,62.85
2022-10-29T18:49:25.684Z,62.52
2022-10-29T18:52:14.499Z,62.56
2022-10-29T18:55:02.327Z,62.62
2022-10-29T18:57:50.079Z,62.36
2022-10-29T19:00:39.930Z,62.44
2022-10-29T19:06:15.936Z,61.97
2022-10-29T19:09:30.757Z,61.74
2022-10-29T19:12:18.140Z,61.83
2022-10-29T19:15:06.695Z,61.58
2022-10-29T19:17:58.198Z,61.36
2022-10-29T19:20:45.953Z,61.60
2022-10-29T19:23:33.669Z,61.55
2022-10-29T19:26:25.233Z,61.33
2022-10-29T19:29:13.782Z,61.32
2022-10-29T19:32:01.927Z,61.55
2022-10-29T19:34:51.214Z,61.63
2022-10-29T19:37:39.206Z,61.45
2022-10-29T19:40:26.696Z,61.46
2022-10-29T19:43:14.411Z,61.20
2022-10-29T19:46:07.383Z,61.68
2022-10-29T19:48:57.770Z,61.60
2022-10-29T19:51:46.676Z,61.56
2022-10-29T19:54:34.358Z,61.60
2022-10-29T19:57:23.698Z,61.73
2022-10-29T20:00:16.716Z,61.64
2022-10-29T20:03:05.553Z,61.69
2022-10-29T20:05:57.325Z,61.55
2022-10-29T20:08:46.326Z,61.72
2022-10-29T20:11:34.161Z,62.30
2022-10-29T20:14:26.509Z,62.26
2022-10-29T20:17:16.760Z,62.25
2022-10-29T20:20:14.170Z,62.22
2022-10-29T20:23:04.718Z,62.32
2022-10-29T20:25:55.973Z,62.30
2022-10-29T20:28:43.504Z,62.29
2022-10-29T20:31:34.725Z,62.48
2022-10-29T20:34:24.657Z,62.77
2022-10-29T20:37:12.113Z,62.57
2022-10-29T20:39:59.807Z,62.85
2022-10-29T20:42:52.208Z,62.84
2022-10-29T20:45:39.751Z,62.85
2022-10-29T20:48:27.368Z,62.91
2022-10-29T20:51:15.278Z,63.22
2022-10-29T20:54:03.085Z,63.15
2022-10-29T20:56:50.398Z,63.24
2022-10-29T20:59:39.212Z,63.19
2022-10-29T21:02:30.115Z,63.14
2022-10-29T21:05:17.465Z,63.06
2022-10-29T21:08:05.154Z,63.22
2022-10-29T21:11:00.581Z,63.77
2022-10-29T21:13:48.303Z,63.91
2022-10-29T21:16:36.997Z,63.84
2022-10-29T21:19:25.943Z,64.00
2022-10-29T21:22:14.989Z,63.96
2022-10-29T21:25:02.557Z,64.21
2022-10-29T21:27:52.979Z,63.99
2022-10-29T21:30:42.786Z,64.00
2022-10-29T21:33:31.571Z,64.30
2022-10-29T21:36:19.789Z,64.29
2022-10-29T21:39:10.018Z,64.23
2022-10-29T21:41:57.702Z,64.40
2022-10-29T21:44:45.247Z,64.54
2022-10-29T21:47:32.568Z,64.39
2022-10-29T21:50:21.358Z,64.37
2022-10-29T21:53:09.774Z,64.53
2022-10-29T21:56:00.864Z,64.45
2022-10-29T21:58:48.202Z,64.48
2022-10-29T22:01:35.950Z,64.62
2022-10-29T22:04:23.736Z,64.58
2022-10-29T22:07:12.549Z,64.43
2022-10-29T22:10:00.234Z,64.71
2022-10-29T22:12:47.657Z,64.50
2022-10-29T22:15:35.269Z,64.79
2022-10-29T22:18:25.051Z,64.77
2022-10-29T22:21:15.550Z,65.02
2022-10-29T22:24:07.538Z,64.87
2022-10-29T22:26:54.919Z,64.80
2022-10-29T22:29:42.608Z,64.88
2022-10-29T22:33:13.370Z,64.92
2022-10-29T22:36:10.565Z,64.92
2022-10-29T22:39:13.036Z,65.04
2022-10-29T22:42:01.904Z,65.04
2022-10-29T22:44:52.064Z,65.13
2022-10-29T22:47:39.809Z,65.37
2022-10-29T22:50:44.107Z,65.13
2022-10-29T22:53:38.587Z,65.04
2022-10-29T22:56:37.863Z,65.21
2022-10-29T22:59:26.607Z,65.21
2022-10-29T23:02:14.450Z,65.26
2022-10-29T23:05:05.191Z,65.32
2022-10-29T23:07:52.625Z,65.37
2022-10-29T23:10:40.183Z,65.21
2022-10-29T23:13:27.883Z,65.41
2022-10-29T23:17:08.172Z,65.18
2022-10-29T23:19:59.703Z,65.44
2022-10-29T23:26:26.427Z,64.93
2022-10-29T23:29:18.518Z,65.29
2022-10-29T23:32:06.536Z,65.17
2022-10-29T23:34:57.839Z,65.35
2022-10-29T23:37:45.690Z,65.37
2022-10-29T23:40:33.016Z,65.34
2022-10-29T23:43:20.587Z,65.44
2022-10-29T23:46:08.411Z,65.30
2022-10-29T23:48:56.459Z,65.49
2022-10-29T23:51:51.315Z,65.38
2022-10-29T23:54:38.666Z,65.24
2022-10-29T23:57:28.925Z,65.07
